sensor_id;sensor_type;location;lat;lon;timestamp;pressure;altitude;pressure_sealevel;temperature;humidity
61757;BME280;57225;61.460;24.060;2024-01-15T00:01:54;97222.22;;;-10.47;100.00
61757;BME280;57225;61.460;24.060;2024-01-15T00:04:39;97220.22;;;-10.38;100.00
61757;BME280;57225;61.460;24.060;2024-01-15T00:07:24;97222.22;;;-10.47;100.00
61757;BME280;57225;61.460;24.060;2024-01-15T00:10:08;97232.88;;;-10.50;100.00
61757;BME280;57225;61.460;24.060;2024-01-15T00:12:53;97227.38;;;-10.54;100.00
61757;BME280;57225;61.460;24.060;2024-01-15T00:15:37;97222.78;;;-10.53;100.00
61757;BME280;57225;61.460;24.060;2024-01-15T00:18:21;97225.69;;;-10.59;100.00
61757;BME280;57225;61.460;24.060;2024-01-15T00:21:07;97223.25;;;-10.51;100.00
61757;BME280;57225;61.460;24.060;2024-01-15T00:23:52;97223.78;;;-10.46;100.00
61757;BME280;57225;61.460;24.060;2024-01-15T00:26:36;97231.41;;;-10.48;100.00
61757;BME280;57225;61.460;24.060;2024-01-15T00:29:21;97217.72;;;-10.55;100.00
61757;BME280;57225;61.460;24.060;2024-01-15T00:32:05;97204.09;;;-10.62;100.00
61757;BME280;57225;61.460;24.060;2024-01-15T00:34:50;97216.94;;;-10.55;100.00
61757;BME280;57225;61.460;24.060;2024-01-15T00:37:34;97195.31;;;-10.71;100.00
61757;BME280;57225;61.460;24.060;2024-01-15T00:40:19;97214.84;;;-10.62;100.00
61757;BME280;57225;61.460;24.060;2024-01-15T00:43:03;97214.84;;;-10.62;100.00
61757;BME280;57225;61.460;24.060;2024-01-15T00:45:48;97210.13;;;-10.65;100.00
61757;BME280;57225;61.460;24.060;2024-01-15T00:48:33;97212.56;;;-10.60;100.00
61757;BME280;57225;61.460;24.060;2024-01-15T00:51:18;97219.75;;;-10.64;100.00
61757;BME280;57225;61.460;24.060;2024-01-15T00:54:02;97212.34;;;-10.67;100.00
61757;BME280;57225;61.460;24.060;2024-01-15T00:56:47;97211.22;;;-10.78;100.00
61757;BME280;57225;61.460;24.060;2024-01-15T00:59:31;97217.50;;;-10.74;100.00
61757;BME280;57225;61.460;24.060;2024-01-15T01:02:15;97206.97;;;-10.79;100.00
61757;BME280;57225;61.460;24.060;2024-01-15T01:05:00;97214.25;;;-10.80;100.00
61757;BME280;57225;61.460;24.060;2024-01-15T01:07:45;97218.41;;;-10.70;100.00
61757;BME280;57225;61.460;24.060;2024-01-15T01:10:29;97212.47;;;-10.76;100.00
61757;BME280;57225;61.460;24.060;2024-01-15T01:13:14;97201.34;;;-10.86;100.00
61757;BME280;57225;61.460;24.060;2024-01-15T01:15:59;97188.25;;;-11.00;100.00
61757;BME280;57225;61.460;24.060;2024-01-15T01:18:43;97208.19;;;-11.01;100.00
61757;BME280;57225;61.460;24.060;2024-01-15T01:21:28;97212.78;;;-11.14;100.00
61757;BME280;57225;61.460;24.060;2024-01-15T01:24:12;97212.53;;;-11.09;100.00
61757;BME280;57225;61.460;24.060;2024-01-15T01:26:56;97206.28;;;-11.13;100.00
61757;BME280;57225;61.460;24.060;2024-01-15T01:29:41;97198.41;;;-11.18;100.00
61757;BME280;57225;61.460;24.060;2024-01-15T01:32:25;97196.41;;;-11.21;100.00
61757;BME280;57225;61.460;24.060;2024-01-15T01:35:10;97203.91;;;-11.26;100.00
61757;BME280;57225;61.460;24.060;2024-01-15T01:37:54;97197.59;;;-11.30;100.00
61757;BME280;57225;61.460;24.060;2024-01-15T01:40:39;97199.50;;;-11.31;100.00
61757;BME280;57225;61.460;24.060;2024-01-15T01:43:24;97193.31;;;-11.44;100.00
61757;BME280;57225;61.460;24.060;2024-01-15T01:46:08;97204.41;;;-11.45;100.00
61757;BME280;57225;61.460;24.060;2024-01-15T01:48:56;97193.19;;;-11.47;100.00
61757;BME280;57225;61.460;24.060;2024-01-15T01:51:41;97191.06;;;-11.54;100.00
61757;BME280;57225;61.460;24.060;2024-01-15T01:54:29;97196.09;;;-11.52;100.00
61757;BME280;57225;61.460;24.060;2024-01-15T01:57:14;97184.97;;;-11.63;100.00
61757;BME280;57225;61.460;24.060;2024-01-15T01:59:59;97188.44;;;-11.62;100.00
61757;BME280;57225;61.460;24.060;2024-01-15T02:02:43;97182.16;;;-11.66;100.00
61757;BME280;57225;61.460;24.060;2024-01-15T02:05:28;97184.38;;;-11.68;100.00
61757;BME280;57225;61.460;24.060;2024-01-15T02:08:13;97181.28;;;-11.70;100.00
61757;BME280;57225;61.460;24.060;2024-01-15T02:10:58;97173.78;;;-11.77;100.00
61757;BME280;57225;61.460;24.060;2024-01-15T02:13:43;97170.38;;;-11.86;100.00
61757;BME280;57225;61.460;24.060;2024-01-15T02:16:27;97176.84;;;-11.87;100.00
61757;BME280;57225;61.460;24.060;2024-01-15T02:19:18;97166.84;;;-11.99;100.00
61757;BME280;57225;61.460;24.060;2024-01-15T02:22:02;97175.13;;;-12.04;100.00
61757;BME280;57225;61.460;24.060;2024-01-15T02:24:47;97173.00;;;-12.19;100.00
61757;BME280;57225;61.460;24.060;2024-01-15T02:27:31;97175.44;;;-12.26;100.00
61757;BME280;57225;61.460;24.060;2024-01-15T02:30:16;97178.97;;;-12.34;100.00
61757;BME280;57225;61.460;24.060;2024-01-15T02:33:00;97185.38;;;-12.47;100.00
61757;BME280;57225;61.460;24.060;2024-01-15T02:35:45;97176.00;;;-12.62;100.00
61757;BME280;57225;61.460;24.060;2024-01-15T02:38:30;97183.91;;;-12.66;100.00
61757;BME280;57225;61.460;24.060;2024-01-15T02:41:14;97186.22;;;-12.85;100.00
61757;BME280;57225;61.460;24.060;2024-01-15T02:43:59;97189.84;;;-12.89;100.00
61757;BME280;57225;61.460;24.060;2024-01-15T02:46:43;97192.13;;;-13.00;100.00
61757;BME280;57225;61.460;24.060;2024-01-15T02:49:28;97190.72;;;-13.06;100.00
61757;BME280;57225;61.460;24.060;2024-01-15T02:52:13;97179.75;;;-13.13;100.00
61757;BME280;57225;61.460;24.060;2024-01-15T02:54:57;97189.25;;;-13.24;100.00
61757;BME280;57225;61.460;24.060;2024-01-15T02:57:42;97181.53;;;-13.26;100.00
61757;BME280;57225;61.460;24.060;2024-01-15T03:00:26;97186.56;;;-13.24;100.00
61757;BME280;57225;61.460;24.060;2024-01-15T03:03:10;97178.91;;;-13.43;100.00
61757;BME280;57225;61.460;24.060;2024-01-15T03:05:55;97185.88;;;-13.51;100.00
61757;BME280;57225;61.460;24.060;2024-01-15T03:08:40;97184.34;;;-13.69;100.00
61757;BME280;57225;61.460;24.060;2024-01-15T03:11:24;97198.69;;;-13.73;100.00
61757;BME280;57225;61.460;24.060;2024-01-15T03:14:09;97199.16;;;-13.80;100.00
61757;BME280;57225;61.460;24.060;2024-01-15T03:17:12;97198.84;;;-13.87;100.00
61757;BME280;57225;61.460;24.060;2024-01-15T03:19:56;97200.28;;;-13.98;100.00
61757;BME280;57225;61.460;24.060;2024-01-15T03:22:41;97207.81;;;-14.00;100.00
61757;BME280;57225;61.460;24.060;2024-01-15T03:25:25;97209.22;;;-14.03;100.00
61757;BME280;57225;61.460;24.060;2024-01-15T03:28:10;97211.13;;;-14.03;100.00
61757;BME280;57225;61.460;24.060;2024-01-15T03:30:55;97201.06;;;-14.32;100.00
61757;BME280;57225;61.460;24.060;2024-01-15T03:33:40;97203.25;;;-14.26;100.00
61757;BME280;57225;61.460;24.060;2024-01-15T03:36:24;97215.84;;;-14.17;100.00
61757;BME280;57225;61.460;24.060;2024-01-15T03:39:09;97226.56;;;-14.17;100.00
61757;BME280;57225;61.460;24.060;2024-01-15T03:41:53;97230.00;;;-14.26;100.00
61757;BME280;57225;61.460;24.060;2024-01-15T03:44:37;97228.56;;;-14.32;100.00
61757;BME280;57225;61.460;24.060;2024-01-15T03:47:22;97230.31;;;-14.36;100.00
61757;BME280;57225;61.460;24.060;2024-01-15T03:50:06;97223.69;;;-14.47;100.00
61757;BME280;57225;61.460;24.060;2024-01-15T03:52:51;97221.81;;;-14.55;100.00
61757;BME280;57225;61.460;24.060;2024-01-15T03:55:35;97220.53;;;-14.57;100.00
61757;BME280;57225;61.460;24.060;2024-01-15T03:58:20;97218.19;;;-14.68;100.00
61757;BME280;57225;61.460;24.060;2024-01-15T04:01:08;97214.69;;;-14.77;100.00
61757;BME280;57225;61.460;24.060;2024-01-15T04:03:52;97218.91;;;-14.84;100.00
61757;BME280;57225;61.460;24.060;2024-01-15T04:06:37;97223.75;;;-14.95;100.00
61757;BME280;57225;61.460;24.060;2024-01-15T04:09:21;97216.97;;;-15.01;100.00
61757;BME280;57225;61.460;24.060;2024-01-15T04:12:07;97217.91;;;-15.05;100.00
61757;BME280;57225;61.460;24.060;2024-01-15T04:14:51;97219.44;;;-15.04;100.00
61757;BME280;57225;61.460;24.060;2024-01-15T04:17:36;97221.81;;;-15.12;100.00
61757;BME280;57225;61.460;24.060;2024-01-15T04:20:20;97212.56;;;-15.05;100.00
61757;BME280;57225;61.460;24.060;2024-01-15T04:23:05;97194.28;;;-15.21;100.00
61757;BME280;57225;61.460;24.060;2024-01-15T04:25:49;97204.94;;;-15.21;100.00
61757;BME280;57225;61.460;24.060;2024-01-15T04:28:34;97213.06;;;-15.34;100.00
61757;BME280;57225;61.460;24.060;2024-01-15T04:31:23;97216.34;;;-15.37;100.00
61757;BME280;57225;61.460;24.060;2024-01-15T04:34:09;97208.41;;;-15.51;100.00
61757;BME280;57225;61.460;24.060;2024-01-15T04:36:53;97208.41;;;-15.60;100.00
61757;BME280;57225;61.460;24.060;2024-01-15T04:39:38;97214.44;;;-15.76;100.00
61757;BME280;57225;61.460;24.060;2024-01-15T04:42:22;97207.63;;;-15.82;100.00
61757;BME280;57225;61.460;24.060;2024-01-15T04:45:07;97208.38;;;-15.91;100.00
61757;BME280;57225;61.460;24.060;2024-01-15T04:47:51;97204.00;;;-15.86;100.00
61757;BME280;57225;61.460;24.060;2024-01-15T04:50:36;97202.06;;;-15.95;100.00
61757;BME280;57225;61.460;24.060;2024-01-15T04:53:20;97211.66;;;-15.94;100.00
61757;BME280;57225;61.460;24.060;2024-01-15T04:56:04;97219.66;;;-15.94;100.00
61757;BME280;57225;61.460;24.060;2024-01-15T04:58:49;97209.66;;;-15.88;100.00
61757;BME280;57225;61.460;24.060;2024-01-15T05:01:33;97199.53;;;-16.00;100.00
61757;BME280;57225;61.460;24.060;2024-01-15T05:04:17;97206.53;;;-16.04;100.00
61757;BME280;57225;61.460;24.060;2024-01-15T05:07:02;97206.28;;;-16.16;100.00
61757;BME280;57225;61.460;24.060;2024-01-15T05:09:46;97204.34;;;-16.24;100.00
61757;BME280;57225;61.460;24.060;2024-01-15T05:12:31;97202.47;;;-16.23;100.00
61757;BME280;57225;61.460;24.060;2024-01-15T05:15:15;97208.13;;;-16.25;100.00
61757;BME280;57225;61.460;24.060;2024-01-15T05:18:00;97205.78;;;-16.40;100.00
61757;BME280;57225;61.460;24.060;2024-01-15T05:20:44;97204.34;;;-16.46;100.00
61757;BME280;57225;61.460;24.060;2024-01-15T05:23:31;97200.09;;;-16.47;100.00
61757;BME280;57225;61.460;24.060;2024-01-15T05:26:15;97207.66;;;-16.41;100.00
61757;BME280;57225;61.460;24.060;2024-01-15T05:29:00;97212.56;;;-16.56;100.00
61757;BME280;57225;61.460;24.060;2024-01-15T05:31:45;97213.16;;;-16.59;100.00
61757;BME280;57225;61.460;24.060;2024-01-15T05:34:29;97215.41;;;-16.53;100.00
61757;BME280;57225;61.460;24.060;2024-01-15T05:37:14;97211.09;;;-16.62;100.00
61757;BME280;57225;61.460;24.060;2024-01-15T05:39:59;97206.69;;;-16.81;100.00
61757;BME280;57225;61.460;24.060;2024-01-15T05:42:43;97208.66;;;-16.86;100.00
61757;BME280;57225;61.460;24.060;2024-01-15T05:45:28;97217.44;;;-16.86;100.00
61757;BME280;57225;61.460;24.060;2024-01-15T05:48:13;97206.91;;;-16.91;100.00
61757;BME280;57225;61.460;24.060;2024-01-15T05:50:57;97222.09;;;-16.91;100.00
61757;BME280;57225;61.460;24.060;2024-01-15T05:53:41;97237.47;;;-16.88;100.00
61757;BME280;57225;61.460;24.060;2024-01-15T05:56:28;97234.50;;;-17.00;100.00
61757;BME280;57225;61.460;24.060;2024-01-15T05:59:12;97223.28;;;-17.11;100.00
61757;BME280;57225;61.460;24.060;2024-01-15T06:01:57;97233.03;;;-17.06;100.00
61757;BME280;57225;61.460;24.060;2024-01-15T06:04:41;97226.16;;;-17.07;100.00
61757;BME280;57225;61.460;24.060;2024-01-15T06:07:26;97229.59;;;-17.21;100.00
61757;BME280;57225;61.460;24.060;2024-01-15T06:10:10;97231.94;;;-17.19;100.00
61757;BME280;57225;61.460;24.060;2024-01-15T06:12:55;97237.84;;;-17.22;100.00
61757;BME280;57225;61.460;24.060;2024-01-15T06:15:39;97237.97;;;-17.27;100.00
61757;BME280;57225;61.460;24.060;2024-01-15T06:18:24;97239.94;;;-17.33;100.00
61757;BME280;57225;61.460;24.060;2024-01-15T06:21:08;97252.84;;;-17.26;100.00
61757;BME280;57225;61.460;24.060;2024-01-15T06:23:54;97255.66;;;-17.36;100.00
61757;BME280;57225;61.460;24.060;2024-01-15T06:26:40;97245.91;;;-17.41;100.00
61757;BME280;57225;61.460;24.060;2024-01-15T06:29:26;97250.84;;;-17.48;100.00
61757;BME280;57225;61.460;24.060;2024-01-15T06:32:11;97249.53;;;-17.50;100.00
61757;BME280;57225;61.460;24.060;2024-01-15T06:34:56;97254.94;;;-17.56;100.00
61757;BME280;57225;61.460;24.060;2024-01-15T06:37:40;97247.66;;;-17.64;100.00
61757;BME280;57225;61.460;24.060;2024-01-15T06:40:25;97265.19;;;-17.63;100.00
61757;BME280;57225;61.460;24.060;2024-01-15T06:43:10;97249.06;;;-17.66;100.00
61757;BME280;57225;61.460;24.060;2024-01-15T06:45:54;97260.56;;;-17.71;100.00
61757;BME280;57225;61.460;24.060;2024-01-15T06:48:38;97258.91;;;-17.67;100.00
61757;BME280;57225;61.460;24.060;2024-01-15T06:51:23;97255.44;;;-17.67;100.00
61757;BME280;57225;61.460;24.060;2024-01-15T06:54:07;97256.31;;;-17.72;100.00
61757;BME280;57225;61.460;24.060;2024-01-15T06:56:52;97271.25;;;-17.76;100.00
61757;BME280;57225;61.460;24.060;2024-01-15T06:59:37;97281.91;;;-17.76;100.00
61757;BME280;57225;61.460;24.060;2024-01-15T07:02:21;97255.28;;;-17.89;100.00
61757;BME280;57225;61.460;24.060;2024-01-15T07:05:06;97264.09;;;-17.94;100.00
61757;BME280;57225;61.460;24.060;2024-01-15T07:07:50;97283.06;;;-17.82;100.00
61757;BME280;57225;61.460;24.060;2024-01-15T07:10:35;97280.81;;;-17.75;100.00
61757;BME280;57225;61.460;24.060;2024-01-15T07:13:19;97278.66;;;-17.73;100.00
61757;BME280;57225;61.460;24.060;2024-01-15T07:16:04;97292.34;;;-17.79;100.00
61757;BME280;57225;61.460;24.060;2024-01-15T07:18:48;97288.09;;;-17.80;100.00
61757;BME280;57225;61.460;24.060;2024-01-15T07:21:33;97282.56;;;-17.84;100.00
61757;BME280;57225;61.460;24.060;2024-01-15T07:24:17;97282.22;;;-17.96;100.00
61757;BME280;57225;61.460;24.060;2024-01-15T07:27:02;97285.16;;;-17.98;100.00
61757;BME280;57225;61.460;24.060;2024-01-15T07:29:48;97282.59;;;-18.03;100.00
61757;BME280;57225;61.460;24.060;2024-01-15T07:32:33;97278.72;;;-18.10;100.00
61757;BME280;57225;61.460;24.060;2024-01-15T07:35:17;97291.41;;;-18.07;100.00
61757;BME280;57225;61.460;24.060;2024-01-15T07:38:02;97288.28;;;-18.09;100.00
61757;BME280;57225;61.460;24.060;2024-01-15T07:40:46;97302.63;;;-18.10;100.00
61757;BME280;57225;61.460;24.060;2024-01-15T07:43:33;97297.41;;;-18.15;100.00
61757;BME280;57225;61.460;24.060;2024-01-15T07:46:17;97296.09;;;-18.18;100.00
61757;BME280;57225;61.460;24.060;2024-01-15T07:49:02;97300.25;;;-18.12;100.00
61757;BME280;57225;61.460;24.060;2024-01-15T07:51:47;97303.28;;;-18.18;100.00
61757;BME280;57225;61.460;24.060;2024-01-15T07:54:32;97297.31;;;-18.10;100.00
61757;BME280;57225;61.460;24.060;2024-01-15T07:57:16;97297.44;;;-18.20;100.00
61757;BME280;57225;61.460;24.060;2024-01-15T08:00:01;97313.81;;;-18.13;100.00
61757;BME280;57225;61.460;24.060;2024-01-15T08:02:47;97311.75;;;-18.16;100.00
61757;BME280;57225;61.460;24.060;2024-01-15T08:05:32;97310.69;;;-18.15;100.00
61757;BME280;57225;61.460;24.060;2024-01-15T08:08:16;97310.00;;;-18.26;100.00
61757;BME280;57225;61.460;24.060;2024-01-15T08:11:01;97311.94;;;-18.31;100.00
61757;BME280;57225;61.460;24.060;2024-01-15T08:13:45;97312.97;;;-18.27;100.00
61757;BME280;57225;61.460;24.060;2024-01-15T08:16:30;97314.13;;;-18.33;100.00
61757;BME280;57225;61.460;24.060;2024-01-15T08:19:14;97312.59;;;-18.40;100.00
61757;BME280;57225;61.460;24.060;2024-01-15T08:21:59;97311.31;;;-18.42;100.00
61757;BME280;57225;61.460;24.060;2024-01-15T08:24:44;97316.81;;;-18.39;100.00
61757;BME280;57225;61.460;24.060;2024-01-15T08:27:29;97309.66;;;-18.38;100.00
61757;BME280;57225;61.460;24.060;2024-01-15T08:30:14;97312.03;;;-18.37;100.00
61757;BME280;57225;61.460;24.060;2024-01-15T08:32:58;97307.28;;;-18.40;100.00
61757;BME280;57225;61.460;24.060;2024-01-15T08:35:43;97313.09;;;-18.38;100.00
61757;BME280;57225;61.460;24.060;2024-01-15T08:38:27;97318.63;;;-18.34;100.00
61757;BME280;57225;61.460;24.060;2024-01-15T08:41:13;97300.69;;;-18.42;100.00
61757;BME280;57225;61.460;24.060;2024-01-15T08:43:57;97304.25;;;-18.33;100.00
61757;BME280;57225;61.460;24.060;2024-01-15T08:46:42;97305.28;;;-18.29;100.00
61757;BME280;57225;61.460;24.060;2024-01-15T08:49:27;97309.72;;;-18.24;100.00
61757;BME280;57225;61.460;24.060;2024-01-15T08:52:11;97316.78;;;-18.33;99.87
61757;BME280;57225;61.460;24.060;2024-01-15T08:54:58;97321.88;;;-18.18;99.86
61757;BME280;57225;61.460;24.060;2024-01-15T08:57:43;97321.31;;;-18.15;99.51
61757;BME280;57225;61.460;24.060;2024-01-15T09:00:28;97327.63;;;-18.11;99.79
61757;BME280;57225;61.460;24.060;2024-01-15T09:03:12;97317.34;;;-17.99;99.90
61757;BME280;57225;61.460;24.060;2024-01-15T09:05:57;97314.69;;;-17.99;99.98
61757;BME280;57225;61.460;24.060;2024-01-15T09:08:41;97330.09;;;-17.82;99.64
61757;BME280;57225;61.460;24.060;2024-01-15T09:11:26;97324.03;;;-17.83;99.26
61757;BME280;57225;61.460;24.060;2024-01-15T09:14:10;97329.63;;;-17.66;99.70
61757;BME280;57225;61.460;24.060;2024-01-15T09:17:12;97332.75;;;-17.64;98.01
61757;BME280;57225;61.460;24.060;2024-01-15T09:19:56;97338.47;;;-17.70;97.22
61757;BME280;57225;61.460;24.060;2024-01-15T09:22:41;97315.38;;;-17.75;97.83
61757;BME280;57225;61.460;24.060;2024-01-15T09:25:26;97331.00;;;-17.55;97.58
61757;BME280;57225;61.460;24.060;2024-01-15T09:28:11;97335.75;;;-17.51;96.95
61757;BME280;57225;61.460;24.060;2024-01-15T09:30:55;97313.25;;;-17.59;97.09
61757;BME280;57225;61.460;24.060;2024-01-15T09:33:40;97327.06;;;-17.43;96.74
61757;BME280;57225;61.460;24.060;2024-01-15T09:36:24;97337.38;;;-17.56;95.85
61757;BME280;57225;61.460;24.060;2024-01-15T09:39:09;97336.78;;;-17.66;96.49
61757;BME280;57225;61.460;24.060;2024-01-15T09:41:55;97336.09;;;-17.72;96.99
61757;BME280;57225;61.460;24.060;2024-01-15T09:44:39;97343.00;;;-17.71;97.70
61757;BME280;57225;61.460;24.060;2024-01-15T09:47:25;97340.81;;;-17.69;96.95
61757;BME280;57225;61.460;24.060;2024-01-15T09:50:09;97342.41;;;-17.68;97.68
61757;BME280;57225;61.460;24.060;2024-01-15T09:52:54;97353.75;;;-17.81;97.76
61757;BME280;57225;61.460;24.060;2024-01-15T09:55:41;97343.28;;;-17.91;98.70
61757;BME280;57225;61.460;24.060;2024-01-15T09:58:25;97350.38;;;-17.86;98.46
61757;BME280;57225;61.460;24.060;2024-01-15T10:01:11;97340.09;;;-17.93;98.50
61757;BME280;57225;61.460;24.060;2024-01-15T10:03:57;97349.59;;;-17.87;98.98
61757;BME280;57225;61.460;24.060;2024-01-15T10:06:45;97355.13;;;-17.83;98.67
61757;BME280;57225;61.460;24.060;2024-01-15T10:09:30;97355.50;;;-17.90;99.01
61757;BME280;57225;61.460;24.060;2024-01-15T10:12:14;97356.56;;;-17.91;98.94
61757;BME280;57225;61.460;24.060;2024-01-15T10:14:59;97357.47;;;-17.82;98.95
61757;BME280;57225;61.460;24.060;2024-01-15T10:17:43;97352.03;;;-17.72;99.08
61757;BME280;57225;61.460;24.060;2024-01-15T10:20:28;97357.56;;;-17.68;98.24
61757;BME280;57225;61.460;24.060;2024-01-15T10:23:14;97353.81;;;-17.67;97.81
61757;BME280;57225;61.460;24.060;2024-01-15T10:25:59;97350.28;;;-17.63;97.99
61757;BME280;57225;61.460;24.060;2024-01-15T10:28:44;97353.34;;;-17.56;98.08
61757;BME280;57225;61.460;24.060;2024-01-15T10:31:29;97352.06;;;-17.58;98.92
61757;BME280;57225;61.460;24.060;2024-01-15T10:34:13;97345.16;;;-17.59;100.00
61757;BME280;57225;61.460;24.060;2024-01-15T10:36:59;97347.28;;;-17.42;100.00
61757;BME280;57225;61.460;24.060;2024-01-15T10:39:47;97363.09;;;-17.32;99.29
61757;BME280;57225;61.460;24.060;2024-01-15T10:42:31;97352.84;;;-17.25;97.48
61757;BME280;57225;61.460;24.060;2024-01-15T10:45:16;97356.97;;;-17.33;96.96
61757;BME280;57225;61.460;24.060;2024-01-15T10:48:01;97350.56;;;-17.32;97.26
61757;BME280;57225;61.460;24.060;2024-01-15T10:50:47;97347.13;;;-17.32;96.58
61757;BME280;57225;61.460;24.060;2024-01-15T10:53:32;97350.59;;;-17.18;97.79
61757;BME280;57225;61.460;24.060;2024-01-15T10:56:18;97341.31;;;-17.34;96.47
61757;BME280;57225;61.460;24.060;2024-01-15T10:59:03;97350.50;;;-17.13;96.70
61757;BME280;57225;61.460;24.060;2024-01-15T11:01:49;97349.16;;;-17.10;95.70
61757;BME280;57225;61.460;24.060;2024-01-15T11:04:34;97351.69;;;-17.19;95.55
61757;BME280;57225;61.460;24.060;2024-01-15T11:07:22;97350.97;;;-17.25;95.82
61757;BME280;57225;61.460;24.060;2024-01-15T11:10:08;97332.03;;;-17.37;96.17
61757;BME280;57225;61.460;24.060;2024-01-15T11:12:54;97324.03;;;-17.37;96.57
61757;BME280;57225;61.460;24.060;2024-01-15T11:16:07;97345.66;;;-17.25;96.55
61757;BME280;57225;61.460;24.060;2024-01-15T11:21:42;97343.41;;;-17.50;98.06
61757;BME280;57225;61.460;24.060;2024-01-15T11:24:37;97350.13;;;-17.52;98.34
61757;BME280;57225;61.460;24.060;2024-01-15T11:27:54;97348.28;;;-17.38;98.21
61757;BME280;57225;61.460;24.060;2024-01-15T11:30:39;97352.88;;;-17.44;98.20
61757;BME280;57225;61.460;24.060;2024-01-15T11:33:33;97348.34;;;-17.43;98.13
61757;BME280;57225;61.460;24.060;2024-01-15T11:36:17;97344.91;;;-17.44;98.12
61757;BME280;57225;61.460;24.060;2024-01-15T11:42:12;97346.78;;;-17.44;99.08
61757;BME280;57225;61.460;24.060;2024-01-15T11:44:57;97354.75;;;-17.44;99.18
61757;BME280;57225;61.460;24.060;2024-01-15T11:51:03;97351.63;;;-17.46;99.13
61757;BME280;57225;61.460;24.060;2024-01-15T11:53:51;97351.91;;;-17.48;99.46
61757;BME280;57225;61.460;24.060;2024-01-15T11:56:38;97349.81;;;-17.51;99.77
61757;BME280;57225;61.460;24.060;2024-01-15T11:59:23;97339.91;;;-17.45;99.72
61757;BME280;57225;61.460;24.060;2024-01-15T12:02:07;97336.72;;;-17.47;100.00
61757;BME280;57225;61.460;24.060;2024-01-15T12:04:52;97336.50;;;-17.51;100.00
61757;BME280;57225;61.460;24.060;2024-01-15T12:07:36;97338.31;;;-17.46;100.00
61757;BME280;57225;61.460;24.060;2024-01-15T12:10:21;97334.06;;;-17.47;99.87
61757;BME280;57225;61.460;24.060;2024-01-15T12:13:12;97335.16;;;-17.48;100.00
61757;BME280;57225;61.460;24.060;2024-01-15T12:15:57;97350.91;;;-17.52;100.00
61757;BME280;57225;61.460;24.060;2024-01-15T12:18:41;97345.88;;;-17.53;100.00
61757;BME280;57225;61.460;24.060;2024-01-15T12:21:29;97332.28;;;-17.52;100.00
61757;BME280;57225;61.460;24.060;2024-01-15T12:24:13;97342.56;;;-17.45;100.00
61757;BME280;57225;61.460;24.060;2024-01-15T12:26:58;97335.66;;;-17.46;100.00
61757;BME280;57225;61.460;24.060;2024-01-15T12:29:43;97342.47;;;-17.40;100.00
61757;BME280;57225;61.460;24.060;2024-01-15T12:32:27;97333.69;;;-17.41;100.00
61757;BME280;57225;61.460;24.060;2024-01-15T12:35:11;97343.25;;;-17.40;100.00
61757;BME280;57225;61.460;24.060;2024-01-15T12:37:56;97348.78;;;-17.36;100.00
61757;BME280;57225;61.460;24.060;2024-01-15T12:40:43;97348.50;;;-17.35;100.00
61757;BME280;57225;61.460;24.060;2024-01-15T12:43:30;97347.84;;;-17.27;100.00
61757;BME280;57225;61.460;24.060;2024-01-15T12:46:15;97350.19;;;-17.25;100.00
61757;BME280;57225;61.460;24.060;2024-01-15T12:48:59;97353.34;;;-17.23;100.00
61757;BME280;57225;61.460;24.060;2024-01-15T12:51:52;97364.50;;;-17.21;100.00
61757;BME280;57225;61.460;24.060;2024-01-15T12:54:37;97366.38;;;-17.22;100.00
61757;BME280;57225;61.460;24.060;2024-01-15T12:57:22;97359.75;;;-17.24;100.00
61757;BME280;57225;61.460;24.060;2024-01-15T13:00:06;97355.50;;;-17.25;100.00
61757;BME280;57225;61.460;24.060;2024-01-15T13:02:55;97353.56;;;-17.20;100.00
61757;BME280;57225;61.460;24.060;2024-01-15T13:05:41;97349.09;;;-17.24;100.00
61757;BME280;57225;61.460;24.060;2024-01-15T13:08:26;97357.59;;;-17.22;100.00
61757;BME280;57225;61.460;24.060;2024-01-15T13:11:12;97360.03;;;-17.26;100.00
61757;BME280;57225;61.460;24.060;2024-01-15T13:13:57;97365.34;;;-17.26;100.00
61757;BME280;57225;61.460;24.060;2024-01-15T13:19:59;97369.13;;;-17.27;100.00
61757;BME280;57225;61.460;24.060;2024-01-15T13:22:43;97365.16;;;-17.29;100.00
61757;BME280;57225;61.460;24.060;2024-01-15T13:25:28;97360.44;;;-17.32;100.00
61757;BME280;57225;61.460;24.060;2024-01-15T13:28:13;97368.91;;;-17.30;100.00
61757;BME280;57225;61.460;24.060;2024-01-15T13:30:57;97365.66;;;-17.27;100.00
61757;BME280;57225;61.460;24.060;2024-01-15T13:33:42;97365.16;;;-17.29;100.00
61757;BME280;57225;61.460;24.060;2024-01-15T13:36:27;97367.06;;;-17.16;100.00
61757;BME280;57225;61.460;24.060;2024-01-15T13:39:11;97374.63;;;-17.23;100.00
61757;BME280;57225;61.460;24.060;2024-01-15T13:41:55;97371.00;;;-17.27;100.00
61757;BME280;57225;61.460;24.060;2024-01-15T13:44:40;97373.06;;;-17.24;100.00
61757;BME280;57225;61.460;24.060;2024-01-15T13:47:24;97376.00;;;-17.26;100.00
61757;BME280;57225;61.460;24.060;2024-01-15T13:50:09;97346.72;;;-17.39;100.00
61757;BME280;57225;61.460;24.060;2024-01-15T13:52:54;97381.63;;;-17.27;100.00
61757;BME280;57225;61.460;24.060;2024-01-15T13:55:38;97380.47;;;-17.21;100.00
61757;BME280;57225;61.460;24.060;2024-01-15T13:58:23;97382.72;;;-17.28;100.00
61757;BME280;57225;61.460;24.060;2024-01-15T14:01:09;97382.19;;;-17.30;100.00
61757;BME280;57225;61.460;24.060;2024-01-15T14:03:54;97374.41;;;-17.40;100.00
61757;BME280;57225;61.460;24.060;2024-01-15T14:06:39;97385.03;;;-17.40;100.00
61757;BME280;57225;61.460;24.060;2024-01-15T14:09:23;97393.00;;;-17.40;100.00
61757;BME280;57225;61.460;24.060;2024-01-15T14:12:09;97386.19;;;-17.46;100.00
61757;BME280;57225;61.460;24.060;2024-01-15T14:14:53;97390.00;;;-17.34;100.00
61757;BME280;57225;61.460;24.060;2024-01-15T14:17:38;97382.16;;;-17.44;100.00